sensor_id;sensor_type;location;lat;lon;timestamp;pressure;altitude;pressure_sealevel;temperature;humidity
71465;BME280;59274;49.874;9.154;2023-04-07T00:01:02;100391.09;;;6.53;100.00
71465;BME280;59274;49.874;9.154;2023-04-07T00:03:28;100387.69;;;6.56;100.00
71465;BME280;59274;49.874;9.154;2023-04-07T00:05:53;100388.41;;;6.29;100.00
71465;BME280;59274;49.874;9.154;2023-04-07T00:08:18;100384.59;;;6.30;100.00
71465;BME280;59274;49.874;9.154;2023-04-07T00:10:44;100379.28;;;6.34;100.00
71465;BME280;59274;49.874;9.154;2023-04-07T00:13:10;100382.34;;;6.32;100.00
71465;BME280;59274;49.874;9.154;2023-04-07T00:15:35;100385.47;;;6.34;100.00
71465;BME280;59274;49.874;9.154;2023-04-07T00:18:01;100383.44;;;6.43;100.00
71465;BME280;59274;49.874;9.154;2023-04-07T00:20:26;100384.13;;;6.40;100.00
71465;BME280;59274;49.874;9.154;2023-04-07T00:22:51;100388.38;;;6.41;100.00
71465;BME280;59274;49.874;9.154;2023-04-07T00:25:17;100377.72;;;6.33;100.00
71465;BME280;59274;49.874;9.154;2023-04-07T00:27:42;100379.53;;;6.28;100.00
71465;BME280;59274;49.874;9.154;2023-04-07T00:30:08;100375.03;;;6.33;100.00
71465;BME280;59274;49.874;9.154;2023-04-07T00:32:34;100375.84;;;6.21;100.00
71465;BME280;59274;49.874;9.154;2023-04-07T00:34:59;100367.53;;;6.14;100.00
71465;BME280;59274;49.874;9.154;2023-04-07T00:37:25;100366.41;;;6.15;100.00
71465;BME280;59274;49.874;9.154;2023-04-07T00:39:51;100362.84;;;6.11;100.00
71465;BME280;59274;49.874;9.154;2023-04-07T00:42:17;100365.16;;;6.24;100.00
71465;BME280;59274;49.874;9.154;2023-04-07T00:44:42;100362.69;;;6.19;100.00
71465;BME280;59274;49.874;9.154;2023-04-07T00:47:08;100359.00;;;6.24;100.00
71465;BME280;59274;49.874;9.154;2023-04-07T00:49:33;100352.81;;;6.11;100.00
71465;BME280;59274;49.874;9.154;2023-04-07T00:51:59;100349.34;;;6.11;100.00
71465;BME280;59274;49.874;9.154;2023-04-07T00:54:25;100343.59;;;6.12;100.00
71465;BME280;59274;49.874;9.154;2023-04-07T00:56:53;100348.31;;;6.15;100.00
71465;BME280;59274;49.874;9.154;2023-04-07T00:59:19;100339.31;;;6.11;100.00
71465;BME280;59274;49.874;9.154;2023-04-07T01:02:07;100339.00;;;6.13;100.00
71465;BME280;59274;49.874;9.154;2023-04-07T01:07:45;100332.97;;;6.04;100.00
71465;BME280;59274;49.874;9.154;2023-04-07T01:10:16;100332.19;;;6.03;100.00
71465;BME280;59274;49.874;9.154;2023-04-07T01:12:56;100333.97;;;5.99;100.00
71465;BME280;59274;49.874;9.154;2023-04-07T01:15:26;100325.22;;;6.02;100.00
71465;BME280;59274;49.874;9.154;2023-04-07T01:17:59;100324.19;;;6.07;100.00
71465;BME280;59274;49.874;9.154;2023-04-07T01:20:29;100325.97;;;6.15;100.00
71465;BME280;59274;49.874;9.154;2023-04-07T01:23:01;100315.41;;;6.10;100.00
71465;BME280;59274;49.874;9.154;2023-04-07T01:25:59;100318.34;;;6.05;100.00
71465;BME280;59274;49.874;9.154;2023-04-07T01:31:09;100314.50;;;6.06;100.00
71465;BME280;59274;49.874;9.154;2023-04-07T01:33:36;100321.03;;;6.05;100.00
71465;BME280;59274;49.874;9.154;2023-04-07T01:36:04;100322.84;;;6.01;100.00
71465;BME280;59274;49.874;9.154;2023-04-07T01:38:32;100310.47;;;6.00;100.00
71465;BME280;59274;49.874;9.154;2023-04-07T01:40:58;100303.53;;;5.99;100.00
71465;BME280;59274;49.874;9.154;2023-04-07T01:43:25;100311.59;;;5.99;100.00
71465;BME280;59274;49.874;9.154;2023-04-07T01:45:53;100304.63;;;5.98;100.00
71465;BME280;59274;49.874;9.154;2023-04-07T01:48:19;100305.88;;;6.00;100.00
71465;BME280;59274;49.874;9.154;2023-04-07T01:50:46;100310.03;;;5.98;100.00
71465;BME280;59274;49.874;9.154;2023-04-07T01:53:13;100303.63;;;6.02;100.00
71465;BME280;59274;49.874;9.154;2023-04-07T01:55:41;100299.25;;;5.98;100.00
71465;BME280;59274;49.874;9.154;2023-04-07T01:58:07;100294.22;;;5.96;100.00
71465;BME280;59274;49.874;9.154;2023-04-07T02:00:32;100296.34;;;6.03;100.00
71465;BME280;59274;49.874;9.154;2023-04-07T02:03:28;100295.09;;;6.00;100.00
71465;BME280;59274;49.874;9.154;2023-04-07T02:06:00;100288.91;;;6.00;100.00
71465;BME280;59274;49.874;9.154;2023-04-07T02:08:28;100286.13;;;5.96;100.00
71465;BME280;59274;49.874;9.154;2023-04-07T02:10:55;100290.75;;;5.96;100.00
71465;BME280;59274;49.874;9.154;2023-04-07T02:13:22;100290.84;;;5.99;100.00
71465;BME280;59274;49.874;9.154;2023-04-07T02:15:49;100289.03;;;6.03;100.00
71465;BME280;59274;49.874;9.154;2023-04-07T02:18:15;100282.94;;;6.06;100.00
71465;BME280;59274;49.874;9.154;2023-04-07T02:20:44;100279.47;;;6.06;100.00
71465;BME280;59274;49.874;9.154;2023-04-07T02:23:11;100278.81;;;6.09;100.00
71465;BME280;59274;49.874;9.154;2023-04-07T02:25:37;100278.34;;;6.07;100.00
71465;BME280;59274;49.874;9.154;2023-04-07T02:28:03;100280.59;;;6.05;100.00
71465;BME280;59274;49.874;9.154;2023-04-07T02:30:30;100273.41;;;6.09;100.00
71465;BME280;59274;49.874;9.154;2023-04-07T02:32:56;100270.38;;;6.10;100.00
71465;BME280;59274;49.874;9.154;2023-04-07T02:35:21;100268.47;;;6.11;100.00
71465;BME280;59274;49.874;9.154;2023-04-07T02:37:47;100267.09;;;6.17;100.00
71465;BME280;59274;49.874;9.154;2023-04-07T02:40:13;100269.88;;;6.20;100.00
71465;BME280;59274;49.874;9.154;2023-04-07T02:42:38;100267.09;;;6.17;100.00
71465;BME280;59274;49.874;9.154;2023-04-07T02:45:06;100267.69;;;6.10;100.00
71465;BME280;59274;49.874;9.154;2023-04-07T02:47:32;100260.91;;;6.16;100.00
71465;BME280;59274;49.874;9.154;2023-04-07T02:49:58;100261.94;;;6.12;100.00
71465;BME280;59274;49.874;9.154;2023-04-07T02:52:23;100266.66;;;6.15;100.00
71465;BME280;59274;49.874;9.154;2023-04-07T02:54:49;100266.19;;;6.13;100.00
71465;BME280;59274;49.874;9.154;2023-04-07T02:57:15;100267.88;;;6.17;100.00
71465;BME280;59274;49.874;9.154;2023-04-07T02:59:40;100268.31;;;6.19;100.00
71465;BME280;59274;49.874;9.154;2023-04-07T03:02:06;100262.72;;;6.12;100.00
71465;BME280;59274;49.874;9.154;2023-04-07T03:04:31;100263.94;;;6.15;100.00
71465;BME280;59274;49.874;9.154;2023-04-07T03:06:57;100262.50;;;6.17;100.00
71465;BME280;59274;49.874;9.154;2023-04-07T03:09:22;100266.66;;;6.15;100.00
71465;BME280;59274;49.874;9.154;2023-04-07T03:11:48;100261.94;;;6.12;100.00
71465;BME280;59274;49.874;9.154;2023-04-07T03:14:14;100257.09;;;6.17;100.00
71465;BME280;59274;49.874;9.154;2023-04-07T03:16:40;100253.94;;;6.15;100.00
71465;BME280;59274;49.874;9.154;2023-04-07T03:19:06;100257.19;;;6.21;100.00
71465;BME280;59274;49.874;9.154;2023-04-07T03:21:31;100248.44;;;6.12;100.00
71465;BME280;59274;49.874;9.154;2023-04-07T03:23:57;100251.91;;;6.24;100.00
71465;BME280;59274;49.874;9.154;2023-04-07T03:26:22;100252.50;;;6.18;100.00
71465;BME280;59274;49.874;9.154;2023-04-07T03:28:48;100254.41;;;6.17;100.00
71465;BME280;59274;49.874;9.154;2023-04-07T03:31:13;100245.09;;;6.15;100.00
71465;BME280;59274;49.874;9.154;2023-04-07T03:33:38;100247.31;;;6.13;100.00
71465;BME280;59274;49.874;9.154;2023-04-07T03:36:04;100250.81;;;6.13;100.00
71465;BME280;59274;49.874;9.154;2023-04-07T03:38:30;100253.50;;;6.13;100.00
71465;BME280;59274;49.874;9.154;2023-04-07T03:40:56;100246.31;;;6.17;100.00
71465;BME280;59274;49.874;9.154;2023-04-07T03:43:21;100243.97;;;6.16;100.00
71465;BME280;59274;49.874;9.154;2023-04-07T03:45:46;100240.03;;;6.13;100.00
71465;BME280;59274;49.874;9.154;2023-04-07T03:48:12;100244.28;;;6.14;100.00
71465;BME280;59274;49.874;9.154;2023-04-07T03:50:38;100240.81;;;6.14;100.00
71465;BME280;59274;49.874;9.154;2023-04-07T03:53:04;100234.97;;;6.12;100.00
71465;BME280;59274;49.874;9.154;2023-04-07T03:55:29;100236.34;;;6.06;100.00
71465;BME280;59274;49.874;9.154;2023-04-07T03:57:55;100243.63;;;6.17;100.00
71465;BME280;59274;49.874;9.154;2023-04-07T04:00:20;100233.75;;;6.09;100.00
71465;BME280;59274;49.874;9.154;2023-04-07T04:02:46;100238.56;;;6.16;100.00
71465;BME280;59274;49.874;9.154;2023-04-07T04:05:11;100231.19;;;6.01;100.00
71465;BME280;59274;49.874;9.154;2023-04-07T04:07:37;100241.31;;;6.04;100.00
71465;BME280;59274;49.874;9.154;2023-04-07T04:10:02;100230.53;;;6.04;100.00
71465;BME280;59274;49.874;9.154;2023-04-07T04:12:28;100238.94;;;6.02;100.00
71465;BME280;59274;49.874;9.154;2023-04-07T04:14:53;100234.34;;;6.03;100.00
71465;BME280;59274;49.874;9.154;2023-04-07T04:17:18;100236.31;;;6.18;100.00
71465;BME280;59274;49.874;9.154;2023-04-07T04:19:44;100237.00;;;6.15;100.00
71465;BME280;59274;49.874;9.154;2023-04-07T04:22:09;100238.31;;;6.21;100.00
71465;BME280;59274;49.874;9.154;2023-04-07T04:24:35;100242.66;;;6.25;100.00
71465;BME280;59274;49.874;9.154;2023-04-07T04:27:00;100230.22;;;6.21;100.00
71465;BME280;59274;49.874;9.154;2023-04-07T04:29:26;100239.97;;;6.25;100.00
71465;BME280;59274;49.874;9.154;2023-04-07T04:31:51;100238.31;;;6.21;100.00
71465;BME280;59274;49.874;9.154;2023-04-07T04:34:17;100238.66;;;6.19;100.00
71465;BME280;59274;49.874;9.154;2023-04-07T04:36:42;100244.41;;;6.18;100.00
71465;BME280;59274;49.874;9.154;2023-04-07T04:39:08;100235.16;;;6.19;100.00
71465;BME280;59274;49.874;9.154;2023-04-07T04:41:33;100239.56;;;6.23;100.00
71465;BME280;59274;49.874;9.154;2023-04-07T04:43:59;100240.94;;;6.17;100.00
71465;BME280;59274;49.874;9.154;2023-04-07T04:46:24;100243.63;;;6.17;100.00
71465;BME280;59274;49.874;9.154;2023-04-07T04:48:50;100242.25;;;6.23;100.00
71465;BME280;59274;49.874;9.154;2023-04-07T04:51:17;100250.69;;;6.22;100.00
71465;BME280;59274;49.874;9.154;2023-04-07T04:53:42;100246.59;;;6.28;100.00
71465;BME280;59274;49.874;9.154;2023-04-07T04:56:08;100250.75;;;6.25;100.00
71465;BME280;59274;49.874;9.154;2023-04-07T04:58:34;100247.31;;;6.25;100.00
71465;BME280;59274;49.874;9.154;2023-04-07T05:00:59;100246.41;;;6.21;100.00
71465;BME280;59274;49.874;9.154;2023-04-07T05:03:27;100251.47;;;6.22;100.00
71465;BME280;59274;49.874;9.154;2023-04-07T05:05:52;100252.25;;;6.23;100.00
71465;BME280;59274;49.874;9.154;2023-04-07T05:08:18;100252.91;;;6.20;100.00
71465;BME280;59274;49.874;9.154;2023-04-07T05:10:45;100253.63;;;6.17;100.00
71465;BME280;59274;49.874;9.154;2023-04-07T05:13:10;100252.34;;;6.26;100.00
71465;BME280;59274;49.874;9.154;2023-04-07T05:15:36;100250.69;;;6.22;100.00
71465;BME280;59274;49.874;9.154;2023-04-07T05:18:02;100248.94;;;6.02;100.00
71465;BME280;59274;49.874;9.154;2023-04-07T05:20:27;100243.06;;;6.12;100.00
71465;BME280;59274;49.874;9.154;2023-04-07T05:22:53;100248.44;;;6.12;100.00
71465;BME280;59274;49.874;9.154;2023-04-07T05:25:18;100249.00;;;6.17;100.00
71465;BME280;59274;49.874;9.154;2023-04-07T05:27:43;100243.81;;;6.24;100.00
71465;BME280;59274;49.874;9.154;2023-04-07T05:30:09;100250.81;;;6.13;100.00
71465;BME280;59274;49.874;9.154;2023-04-07T05:32:35;100240.44;;;6.27;100.00
71465;BME280;59274;49.874;9.154;2023-04-07T05:35:01;100247.06;;;6.30;100.00
71465;BME280;59274;49.874;9.154;2023-04-07T05:37:26;100252.00;;;6.28;100.00
71465;BME280;59274;49.874;9.154;2023-04-07T05:39:51;100247.72;;;6.27;100.00
71465;BME280;59274;49.874;9.154;2023-04-07T05:42:17;100241.22;;;6.28;100.00
71465;BME280;59274;49.874;9.154;2023-04-07T05:44:42;100250.88;;;6.29;100.00
71465;BME280;59274;49.874;9.154;2023-04-07T05:47:08;100253.09;;;6.39;100.00
71465;BME280;59274;49.874;9.154;2023-04-07T05:49:34;100243.63;;;6.17;100.00
71465;BME280;59274;49.874;9.154;2023-04-07T05:51:59;100247.72;;;6.27;100.00
71465;BME280;59274;49.874;9.154;2023-04-07T05:54:25;100244.44;;;6.34;100.00
71465;BME280;59274;49.874;9.154;2023-04-07T05:56:53;100239.31;;;6.28;100.00
71465;BME280;59274;49.874;9.154;2023-04-07T05:59:19;100243.56;;;6.29;100.00
71465;BME280;59274;49.874;9.154;2023-04-07T06:01:44;100240.56;;;6.19;100.00
71465;BME280;59274;49.874;9.154;2023-04-07T06:04:10;100241.50;;;6.11;100.00
71465;BME280;59274;49.874;9.154;2023-04-07T06:06:35;100235.53;;;6.17;100.00
71465;BME280;59274;49.874;9.154;2023-04-07T06:09:00;100244.34;;;6.30;100.00
71465;BME280;59274;49.874;9.154;2023-04-07T06:11:26;100240.97;;;6.33;100.00
71465;BME280;59274;49.874;9.154;2023-04-07T06:13:52;100241.75;;;6.34;100.00
71465;BME280;59274;49.874;9.154;2023-04-07T06:16:17;100250.03;;;6.41;100.00
71465;BME280;59274;49.874;9.154;2023-04-07T06:18:42;100243.44;;;6.38;100.00
71465;BME280;59274;49.874;9.154;2023-04-07T06:21:08;100251.28;;;6.43;100.00
71465;BME280;59274;49.874;9.154;2023-04-07T06:23:33;100253.97;;;6.43;100.00
71465;BME280;59274;49.874;9.154;2023-04-07T06:25:59;100248.91;;;6.42;100.00
71465;BME280;59274;49.874;9.154;2023-04-07T06:28:24;100250.47;;;6.43;100.00
71465;BME280;59274;49.874;9.154;2023-04-07T06:30:50;100248.66;;;6.47;100.00
71465;BME280;59274;49.874;9.154;2023-04-07T06:33:15;100247.31;;;6.53;100.00
71465;BME280;59274;49.874;9.154;2023-04-07T06:35:42;100246.97;;;6.70;100.00
71465;BME280;59274;49.874;9.154;2023-04-07T06:38:07;100247.41;;;6.72;100.00
71465;BME280;59274;49.874;9.154;2023-04-07T06:40:33;100249.59;;;6.82;100.00
71465;BME280;59274;49.874;9.154;2023-04-07T06:42:58;100254.66;;;6.84;100.00
71465;BME280;59274;49.874;9.154;2023-04-07T06:45:23;100249.03;;;6.89;100.00
71465;BME280;59274;49.874;9.154;2023-04-07T06:47:49;100253.03;;;6.95;100.00
71465;BME280;59274;49.874;9.154;2023-04-07T06:50:14;100252.66;;;6.96;100.00
71465;BME280;59274;49.874;9.154;2023-04-07T06:52:41;100251.31;;;7.02;100.00
71465;BME280;59274;49.874;9.154;2023-04-07T06:55:07;100254.25;;;7.13;100.00
71465;BME280;59274;49.874;9.154;2023-04-07T06:57:33;100250.59;;;7.21;100.00
71465;BME280;59274;49.874;9.154;2023-04-07T06:59:58;100261.41;;;7.21;100.00
71465;BME280;59274;49.874;9.154;2023-04-07T07:02:24;100255.03;;;7.29;100.00
71465;BME280;59274;49.874;9.154;2023-04-07T07:04:50;100249.25;;;7.46;100.00
71465;BME280;59274;49.874;9.154;2023-04-07T07:07:15;100251.00;;;7.55;100.00
71465;BME280;59274;49.874;9.154;2023-04-07T07:09:41;100252.28;;;7.61;100.00
71465;BME280;59274;49.874;9.154;2023-04-07T07:12:06;100253.34;;;7.72;100.00
71465;BME280;59274;49.874;9.154;2023-04-07T07:14:31;100248.94;;;7.83;100.00
71465;BME280;59274;49.874;9.154;2023-04-07T07:16:57;100255.28;;;7.91;100.00
71465;BME280;59274;49.874;9.154;2023-04-07T07:19:22;100259.72;;;8.18;100.00
71465;BME280;59274;49.874;9.154;2023-04-07T07:21:51;100255.69;;;8.27;100.00
71465;BME280;59274;49.874;9.154;2023-04-07T07:24:16;100254.78;;;8.39;100.00
71465;BME280;59274;49.874;9.154;2023-04-07T07:26:41;100255.41;;;8.33;100.00
71465;BME280;59274;49.874;9.154;2023-04-07T07:29:07;100256.34;;;8.40;100.00
71465;BME280;59274;49.874;9.154;2023-04-07T07:31:32;100258.00;;;8.45;100.00
71465;BME280;59274;49.874;9.154;2023-04-07T07:33:58;100257.63;;;8.46;100.00
71465;BME280;59274;49.874;9.154;2023-04-07T07:36:23;100256.84;;;8.46;100.00
71465;BME280;59274;49.874;9.154;2023-04-07T07:38:49;100255.69;;;8.47;100.00
71465;BME280;59274;49.874;9.154;2023-04-07T07:41:16;100265.09;;;8.34;100.00
71465;BME280;59274;49.874;9.154;2023-04-07T07:43:41;100268.09;;;8.48;100.00
71465;BME280;59274;49.874;9.154;2023-04-07T07:46:07;100267.31;;;8.47;100.00
71465;BME280;59274;49.874;9.154;2023-04-07T07:48:32;100267.63;;;8.07;100.00
71465;BME280;59274;49.874;9.154;2023-04-07T07:50:58;100277.47;;;8.15;100.00
71465;BME280;59274;49.874;9.154;2023-04-07T07:53:23;100279.28;;;8.11;100.00
71465;BME280;59274;49.874;9.154;2023-04-07T07:55:49;100278.59;;;8.14;100.00
71465;BME280;59274;49.874;9.154;2023-04-07T07:58:14;100276.88;;;8.25;100.00
71465;BME280;59274;49.874;9.154;2023-04-07T08:00:40;100282.38;;;8.10;100.00
71465;BME280;59274;49.874;9.154;2023-04-07T08:03:05;100278.59;;;8.14;100.00
71465;BME280;59274;49.874;9.154;2023-04-07T08:05:31;100283.81;;;8.23;100.00
71465;BME280;59274;49.874;9.154;2023-04-07T08:07:56;100285.09;;;8.29;100.00
71465;BME280;59274;49.874;9.154;2023-04-07T08:10:22;100285.88;;;8.30;100.00
71465;BME280;59274;49.874;9.154;2023-04-07T08:12:49;100286.53;;;8.42;100.00
71465;BME280;59274;49.874;9.154;2023-04-07T08:15:14;100286.75;;;8.53;100.00
71465;BME280;59274;49.874;9.154;2023-04-07T08:17:40;100287.97;;;8.55;100.00
71465;BME280;59274;49.874;9.154;2023-04-07T08:20:06;100292.88;;;8.69;100.00
71465;BME280;59274;49.874;9.154;2023-04-07T08:22:32;100290.72;;;8.78;100.00
71465;BME280;59274;49.874;9.154;2023-04-07T08:24:58;100289.81;;;8.71;100.00
71465;BME280;59274;49.874;9.154;2023-04-07T08:27:23;100295.72;;;8.76;100.00
71465;BME280;59274;49.874;9.154;2023-04-07T08:29:58;100303.41;;;8.55;100.00
71465;BME280;59274;49.874;9.154;2023-04-07T08:32:24;100296.97;;;8.82;100.00
71465;BME280;59274;49.874;9.154;2023-04-07T08:34:54;100308.38;;;8.91;100.00
71465;BME280;59274;49.874;9.154;2023-04-07T08:37:20;100304.97;;;8.75;100.00
71465;BME280;59274;49.874;9.154;2023-04-07T08:39:45;100303.84;;;8.76;100.00
71465;BME280;59274;49.874;9.154;2023-04-07T08:42:11;100307.28;;;8.73;100.00
71465;BME280;59274;49.874;9.154;2023-04-07T08:44:38;100310.53;;;8.82;100.00
71465;BME280;59274;49.874;9.154;2023-04-07T08:47:05;100308.03;;;8.93;100.00
71465;BME280;59274;49.874;9.154;2023-04-07T08:49:34;100310.13;;;9.03;100.00
71465;BME280;59274;49.874;9.154;2023-04-07T08:52:05;100309.56;;;9.13;100.00
71465;BME280;59274;49.874;9.154;2023-04-07T08:54:34;100310.38;;;9.17;100.00
71465;BME280;59274;49.874;9.154;2023-04-07T08:57:01;100310.50;;;9.47;100.00
71465;BME280;59274;49.874;9.154;2023-04-07T08:59:28;100306.28;;;9.72;100.00
71465;BME280;59274;49.874;9.154;2023-04-07T09:01:54;100308.34;;;9.82;100.00
71465;BME280;59274;49.874;9.154;2023-04-07T09:04:19;100309.03;;;10.02;100.00
71465;BME280;59274;49.874;9.154;2023-04-07T09:06:47;100302.09;;;10.05;100.00
71465;BME280;59274;49.874;9.154;2023-04-07T09:09:13;100307.81;;;10.23;100.00
71465;BME280;59274;49.874;9.154;2023-04-07T09:11:39;100314.97;;;10.11;100.00
71465;BME280;59274;49.874;9.154;2023-04-07T09:14:05;100307.50;;;10.31;100.00
71465;BME280;59274;49.874;9.154;2023-04-07T09:16:30;100310.97;;;10.58;100.00
71465;BME280;59274;49.874;9.154;2023-04-07T09:18:58;100312.63;;;10.70;99.88
71465;BME280;59274;49.874;9.154;2023-04-07T09:21:23;100316.41;;;10.95;100.00
71465;BME280;59274;49.874;9.154;2023-04-07T09:23:49;100316.16;;;11.07;97.86
71465;BME280;59274;49.874;9.154;2023-04-07T09:26:26;100315.44;;;11.14;97.55
71465;BME280;59274;49.874;9.154;2023-04-07T09:28:59;100312.84;;;11.28;96.03
71465;BME280;59274;49.874;9.154;2023-04-07T09:31:47;100315.84;;;11.16;94.83
71465;BME280;59274;49.874;9.154;2023-04-07T09:34:27;100316.09;;;11.04;96.61
71465;BME280;59274;49.874;9.154;2023-04-07T09:36:53;100329.47;;;10.82;95.28
71465;BME280;59274;49.874;9.154;2023-04-07T09:39:19;100325.09;;;10.14;99.05
71465;BME280;59274;49.874;9.154;2023-04-07T09:41:45;100327.63;;;10.00;100.00
71465;BME280;59274;49.874;9.154;2023-04-07T09:44:11;100317.75;;;9.89;100.00
71465;BME280;59274;49.874;9.154;2023-04-07T09:46:56;100323.84;;;9.82;100.00
71465;BME280;59274;49.874;9.154;2023-04-07T09:49:23;100321.13;;;10.35;100.00
71465;BME280;59274;49.874;9.154;2023-04-07T09:51:56;100322.81;;;10.46;99.74
71465;BME280;59274;49.874;9.154;2023-04-07T09:54:38;100319.34;;;10.46;97.74
71465;BME280;59274;49.874;9.154;2023-04-07T09:57:06;100312.13;;;10.60;97.98
71465;BME280;59274;49.874;9.154;2023-04-07T09:59:33;100316.88;;;11.04;95.17
71465;BME280;59274;49.874;9.154;2023-04-07T10:01:59;100318.81;;;11.00;95.12
71465;BME280;59274;49.874;9.154;2023-04-07T10:04:25;100316.38;;;11.32;94.27
71465;BME280;59274;49.874;9.154;2023-04-07T10:06:52;100314.66;;;11.57;95.68
71465;BME280;59274;49.874;9.154;2023-04-07T10:09:22;100312.69;;;11.51;92.89
71465;BME280;59274;49.874;9.154;2023-04-07T10:11:50;100314.38;;;11.73;91.50
71465;BME280;59274;49.874;9.154;2023-04-07T10:14:17;100313.94;;;11.64;94.03
71465;BME280;59274;49.874;9.154;2023-04-07T10:16:43;100306.75;;;11.86;93.26
71465;BME280;59274;49.874;9.154;2023-04-07T10:19:09;100316.94;;;11.99;91.21
71465;BME280;59274;49.874;9.154;2023-04-07T10:21:39;100321.38;;;11.70;89.89
71465;BME280;59274;49.874;9.154;2023-04-07T10:24:23;100314.78;;;11.71;91.93
71465;BME280;59274;49.874;9.154;2023-04-07T10:26:58;100311.00;;;11.35;91.58
71465;BME280;59274;49.874;9.154;2023-04-07T10:29:28;100317.03;;;11.66;95.72
71465;BME280;59274;49.874;9.154;2023-04-07T10:31:58;100323.09;;;11.89;92.17
71465;BME280;59274;49.874;9.154;2023-04-07T10:37:15;100322.38;;;11.52;90.34
71465;BME280;59274;49.874;9.154;2023-04-07T10:39:47;100323.38;;;11.29;92.82
71465;BME280;59274;49.874;9.154;2023-04-07T10:45:04;100328.53;;;11.45;95.07
71465;BME280;59274;49.874;9.154;2023-04-07T10:47:31;100330.88;;;11.47;94.87
71465;BME280;59274;49.874;9.154;2023-04-07T10:50:23;100328.34;;;11.24;94.49
71465;BME280;59274;49.874;9.154;2023-04-07T10:53:05;100331.59;;;11.36;94.04
71465;BME280;59274;49.874;9.154;2023-04-07T10:55:42;100333.53;;;11.39;94.68
71465;BME280;59274;49.874;9.154;2023-04-07T11:03:27;100333.53;;;10.99;95.77
71465;BME280;59274;49.874;9.154;2023-04-07T11:06:07;100337.94;;;10.44;95.48
71465;BME280;59274;49.874;9.154;2023-04-07T11:08:44;100333.84;;;10.90;94.97
71465;BME280;59274;49.874;9.154;2023-04-07T11:11:12;100330.22;;;11.16;95.63
71465;BME280;59274;49.874;9.154;2023-04-07T11:13:44;100325.50;;;11.50;95.07
71465;BME280;59274;49.874;9.154;2023-04-07T11:16:34;100326.91;;;11.81;91.12
71465;BME280;59274;49.874;9.154;2023-04-07T11:18:59;100330.13;;;11.97;88.18
71465;BME280;59274;49.874;9.154;2023-04-07T11:21:25;100333.41;;;12.24;90.71
71465;BME280;59274;49.874;9.154;2023-04-07T11:23:50;100323.53;;;12.78;89.64
71465;BME280;59274;49.874;9.154;2023-04-07T11:26:16;100320.88;;;13.03;87.12
71465;BME280;59274;49.874;9.154;2023-04-07T11:28:46;100331.41;;;13.04;87.22
71465;BME280;59274;49.874;9.154;2023-04-07T11:31:14;100331.78;;;12.99;85.31
71465;BME280;59274;49.874;9.154;2023-04-07T11:33:51;100329.47;;;13.15;84.25
71465;BME280;59274;49.874;9.154;2023-04-07T11:36:25;100324.06;;;13.37;79.96
71465;BME280;59274;49.874;9.154;2023-04-07T11:38:51;100318.00;;;12.49;82.60
71465;BME280;59274;49.874;9.154;2023-04-07T11:41:16;100315.69;;;12.66;85.06
71465;BME280;59274;49.874;9.154;2023-04-07T11:43:42;100325.88;;;12.83;83.43
71465;BME280;59274;49.874;9.154;2023-04-07T11:48:34;100317.03;;;13.89;80.99
71465;BME280;59274;49.874;9.154;2023-04-07T11:51:00;100319.34;;;14.04;77.72
71465;BME280;59274;49.874;9.154;2023-04-07T11:53:34;100330.28;;;13.87;76.67
71465;BME280;59274;49.874;9.154;2023-04-07T11:56:06;100330.31;;;13.72;76.53
71465;BME280;59274;49.874;9.154;2023-04-07T11:58:34;100323.66;;;13.98;76.73
71465;BME280;59274;49.874;9.154;2023-04-07T12:01:01;100327.59;;;13.83;76.61
71465;BME280;59274;49.874;9.154;2023-04-07T12:03:32;100320.94;;;13.73;74.78
71465;BME280;59274;49.874;9.154;2023-04-07T12:05:59;100325.25;;;13.82;76.12
71465;BME280;59274;49.874;9.154;2023-04-07T12:08:39;100316.59;;;14.08;72.91
71465;BME280;59274;49.874;9.154;2023-04-07T12:11:07;100317.28;;;14.51;78.00
71465;BME280;59274;49.874;9.154;2023-04-07T12:13:34;100319.41;;;14.99;74.23
71465;BME280;59274;49.874;9.154;2023-04-07T12:16:00;100325.06;;;15.29;72.97
71465;BME280;59274;49.874;9.154;2023-04-07T12:18:27;100325.59;;;15.65;72.57
71465;BME280;59274;49.874;9.154;2023-04-07T12:20:55;100325.28;;;16.00;70.07
71465;BME280;59274;49.874;9.154;2023-04-07T12:23:24;100325.66;;;16.02;66.66
71465;BME280;59274;49.874;9.154;2023-04-07T12:25:50;100332.72;;;16.37;70.07
71465;BME280;59274;49.874;9.154;2023-04-07T12:28:18;100334.38;;;16.28;65.30
71465;BME280;59274;49.874;9.154;2023-04-07T12:30:43;100323.97;;;15.71;65.68
71465;BME280;59274;49.874;9.154;2023-04-07T12:33:10;100325.72;;;15.47;69.00
71465;BME280;59274;49.874;9.154;2023-04-07T12:35:36;100327.66;;;14.92;71.67
71465;BME280;59274;49.874;9.154;2023-04-07T12:38:03;100325.50;;;14.44;70.42
71465;BME280;59274;49.874;9.154;2023-04-07T12:40:30;100317.81;;;13.89;73.73
71465;BME280;59274;49.874;9.154;2023-04-07T12:42:57;100319.78;;;13.67;73.80
71465;BME280;59274;49.874;9.154;2023-04-07T12:45:24;100323.31;;;13.47;75.04
71465;BME280;59274;49.874;9.154;2023-04-07T12:47:51;100322.44;;;13.11;76.12
71465;BME280;59274;49.874;9.154;2023-04-07T12:50:17;100321.34;;;13.33;74.58
71465;BME280;59274;49.874;9.154;2023-04-07T12:52:43;100323.69;;;13.63;73.06
71465;BME280;59274;49.874;9.154;2023-04-07T12:55:09;100323.28;;;13.86;72.48
71465;BME280;59274;49.874;9.154;2023-04-07T12:57:36;100329.13;;;13.88;71.14
71465;BME280;59274;49.874;9.154;2023-04-07T13:00:03;100333.41;;;13.96;72.58
71465;BME280;59274;49.874;9.154;2023-04-07T13:02:30;100324.44;;;14.02;71.14
71465;BME280;59274;49.874;9.154;2023-04-07T13:04:55;100323.66;;;13.98;71.42
71465;BME280;59274;49.874;9.154;2023-04-07T13:07:22;100336.16;;;13.82;72.52
71465;BME280;59274;49.874;9.154;2023-04-07T13:09:48;100331.09;;;13.73;73.44